sensor_id;sensor_type;location;lat;lon;timestamp;temperature;humidity
12622;DHT22;6376;48.182;-1.644;2023-03-13T00:00:16;13.00;88.80
12622;DHT22;6376;48.182;-1.644;2023-03-13T00:02:42;13.00;88.50
12622;DHT22;6376;48.182;-1.644;2023-03-13T00:05:12;13.00;88.70
12622;DHT22;6376;48.182;-1.644;2023-03-13T00:07:38;13.00;88.70
12622;DHT22;6376;48.182;-1.644;2023-03-13T00:10:04;13.00;88.80
12622;DHT22;6376;48.182;-1.644;2023-03-13T00:12:30;13.00;88.10
12622;DHT22;6376;48.182;-1.644;2023-03-13T00:14:55;13.00;88.40
12622;DHT22;6376;48.182;-1.644;2023-03-13T00:17:21;13.00;88.30
12622;DHT22;6376;48.182;-1.644;2023-03-13T00:19:47;13.00;88.60
12622;DHT22;6376;48.182;-1.644;2023-03-13T00:22:13;13.00;88.60
12622;DHT22;6376;48.182;-1.644;2023-03-13T00:24:39;13.00;88.40
12622;DHT22;6376;48.182;-1.644;2023-03-13T00:27:05;13.00;88.20
12622;DHT22;6376;48.182;-1.644;2023-03-13T00:29:32;13.00;88.00
12622;DHT22;6376;48.182;-1.644;2023-03-13T00:31:59;13.00;87.90
12622;DHT22;6376;48.182;-1.644;2023-03-13T00:34:25;13.00;87.80
12622;DHT22;6376;48.182;-1.644;2023-03-13T00:36:52;13.00;88.10
12622;DHT22;6376;48.182;-1.644;2023-03-13T00:39:18;13.00;87.90
12622;DHT22;6376;48.182;-1.644;2023-03-13T00:41:43;13.00;87.70
12622;DHT22;6376;48.182;-1.644;2023-03-13T00:44:09;13.00;87.90
12622;DHT22;6376;48.182;-1.644;2023-03-13T00:46:35;13.00;87.60
12622;DHT22;6376;48.182;-1.644;2023-03-13T00:49:01;13.00;87.90
12622;DHT22;6376;48.182;-1.644;2023-03-13T00:51:27;13.00;87.70
12622;DHT22;6376;48.182;-1.644;2023-03-13T00:53:57;13.00;87.10
12622;DHT22;6376;48.182;-1.644;2023-03-13T00:56:27;13.00;87.60
12622;DHT22;6376;48.182;-1.644;2023-03-13T00:58:53;13.00;87.50
12622;DHT22;6376;48.182;-1.644;2023-03-13T01:01:24;13.00;88.20
12622;DHT22;6376;48.182;-1.644;2023-03-13T01:03:53;13.00;87.80
12622;DHT22;6376;48.182;-1.644;2023-03-13T01:06:21;13.00;87.80
12622;DHT22;6376;48.182;-1.644;2023-03-13T01:08:48;13.00;88.10
12622;DHT22;6376;48.182;-1.644;2023-03-13T01:11:19;13.00;87.50
12622;DHT22;6376;48.182;-1.644;2023-03-13T01:13:46;13.00;87.80
12622;DHT22;6376;48.182;-1.644;2023-03-13T01:16:14;13.00;87.80
12622;DHT22;6376;48.182;-1.644;2023-03-13T01:18:43;13.00;88.30
12622;DHT22;6376;48.182;-1.644;2023-03-13T01:21:09;13.00;87.60
12622;DHT22;6376;48.182;-1.644;2023-03-13T01:23:35;13.00;87.60
12622;DHT22;6376;48.182;-1.644;2023-03-13T01:26:03;13.00;87.90
12622;DHT22;6376;48.182;-1.644;2023-03-13T01:28:29;13.00;88.00
12622;DHT22;6376;48.182;-1.644;2023-03-13T01:30:55;13.00;88.00
12622;DHT22;6376;48.182;-1.644;2023-03-13T01:33:21;13.00;87.90
12622;DHT22;6376;48.182;-1.644;2023-03-13T01:35:47;13.00;87.60
12622;DHT22;6376;48.182;-1.644;2023-03-13T01:38:12;13.00;87.90
12622;DHT22;6376;48.182;-1.644;2023-03-13T01:40:44;13.00;87.90
12622;DHT22;6376;48.182;-1.644;2023-03-13T01:43:25;13.00;88.00
12622;DHT22;6376;48.182;-1.644;2023-03-13T01:46:13;13.00;87.60
12622;DHT22;6376;48.182;-1.644;2023-03-13T01:51:54;13.10;87.70
12622;DHT22;6376;48.182;-1.644;2023-03-13T01:54:30;13.00;87.40
12622;DHT22;6376;48.182;-1.644;2023-03-13T01:59:55;13.00;87.50
12622;DHT22;6376;48.182;-1.644;2023-03-13T02:02:23;13.10;87.60
12622;DHT22;6376;48.182;-1.644;2023-03-13T02:04:53;13.00;87.70
12622;DHT22;6376;48.182;-1.644;2023-03-13T02:07:25;13.10;87.70
12622;DHT22;6376;48.182;-1.644;2023-03-13T02:09:54;13.10;87.50
12622;DHT22;6376;48.182;-1.644;2023-03-13T02:12:32;13.10;87.30
12622;DHT22;6376;48.182;-1.644;2023-03-13T02:15:01;13.10;87.90
12622;DHT22;6376;48.182;-1.644;2023-03-13T02:17:28;13.10;88.00
12622;DHT22;6376;48.182;-1.644;2023-03-13T02:19:54;13.10;88.20
12622;DHT22;6376;48.182;-1.644;2023-03-13T02:27:56;13.10;87.70
12622;DHT22;6376;48.182;-1.644;2023-03-13T02:30:23;13.00;87.20
12622;DHT22;6376;48.182;-1.644;2023-03-13T02:32:49;13.10;87.50
12622;DHT22;6376;48.182;-1.644;2023-03-13T02:35:17;13.10;87.70
12622;DHT22;6376;48.182;-1.644;2023-03-13T02:37:47;13.10;88.00
12622;DHT22;6376;48.182;-1.644;2023-03-13T02:40:17;13.10;88.40
12622;DHT22;6376;48.182;-1.644;2023-03-13T02:42:45;13.10;88.00
12622;DHT22;6376;48.182;-1.644;2023-03-13T02:45:16;13.10;87.90
12622;DHT22;6376;48.182;-1.644;2023-03-13T02:47:42;13.10;88.50
12622;DHT22;6376;48.182;-1.644;2023-03-13T02:50:08;13.10;89.10
12622;DHT22;6376;48.182;-1.644;2023-03-13T02:52:47;13.10;89.50
12622;DHT22;6376;48.182;-1.644;2023-03-13T02:55:38;13.10;88.90
12622;DHT22;6376;48.182;-1.644;2023-03-13T02:58:05;13.10;89.30
12622;DHT22;6376;48.182;-1.644;2023-03-13T03:00:31;13.00;88.60
12622;DHT22;6376;48.182;-1.644;2023-03-13T03:02:56;13.00;88.50
12622;DHT22;6376;48.182;-1.644;2023-03-13T03:05:22;12.90;88.80
12622;DHT22;6376;48.182;-1.644;2023-03-13T03:07:49;12.90;88.80
12622;DHT22;6376;48.182;-1.644;2023-03-13T03:10:16;12.90;89.20
12622;DHT22;6376;48.182;-1.644;2023-03-13T03:12:42;12.90;89.30
12622;DHT22;6376;48.182;-1.644;2023-03-13T03:15:08;12.90;90.00
12622;DHT22;6376;48.182;-1.644;2023-03-13T03:17:34;12.90;90.10
12622;DHT22;6376;48.182;-1.644;2023-03-13T03:19:59;12.90;90.10
12622;DHT22;6376;48.182;-1.644;2023-03-13T03:22:25;12.80;90.20
12622;DHT22;6376;48.182;-1.644;2023-03-13T03:24:51;12.80;90.40
12622;DHT22;6376;48.182;-1.644;2023-03-13T03:27:16;12.80;90.40
12622;DHT22;6376;48.182;-1.644;2023-03-13T03:29:42;12.80;90.60
12622;DHT22;6376;48.182;-1.644;2023-03-13T03:32:07;12.80;90.60
12622;DHT22;6376;48.182;-1.644;2023-03-13T03:34:33;12.80;90.60
12622;DHT22;6376;48.182;-1.644;2023-03-13T03:36:59;12.80;90.60
12622;DHT22;6376;48.182;-1.644;2023-03-13T03:39:24;12.90;90.70
12622;DHT22;6376;48.182;-1.644;2023-03-13T03:41:50;12.90;90.70
12622;DHT22;6376;48.182;-1.644;2023-03-13T03:44:16;12.90;90.70
12622;DHT22;6376;48.182;-1.644;2023-03-13T03:46:41;12.90;90.60
12622;DHT22;6376;48.182;-1.644;2023-03-13T03:49:07;12.90;90.60
12622;DHT22;6376;48.182;-1.644;2023-03-13T03:51:32;12.90;90.60
12622;DHT22;6376;48.182;-1.644;2023-03-13T03:53:58;12.90;90.70
12622;DHT22;6376;48.182;-1.644;2023-03-13T03:56:24;12.90;90.70
12622;DHT22;6376;48.182;-1.644;2023-03-13T03:58:49;12.90;90.70
12622;DHT22;6376;48.182;-1.644;2023-03-13T04:01:15;12.90;90.60
12622;DHT22;6376;48.182;-1.644;2023-03-13T04:03:41;12.90;91.10
12622;DHT22;6376;48.182;-1.644;2023-03-13T04:06:07;12.90;90.80
12622;DHT22;6376;48.182;-1.644;2023-03-13T04:08:33;12.90;90.90
12622;DHT22;6376;48.182;-1.644;2023-03-13T04:11:00;12.90;91.00
12622;DHT22;6376;48.182;-1.644;2023-03-13T04:13:26;12.90;90.80
12622;DHT22;6376;48.182;-1.644;2023-03-13T04:15:52;12.90;91.00
12622;DHT22;6376;48.182;-1.644;2023-03-13T04:18:17;12.90;91.00
12622;DHT22;6376;48.182;-1.644;2023-03-13T04:20:43;12.90;91.00
12622;DHT22;6376;48.182;-1.644;2023-03-13T04:23:09;12.90;91.00
12622;DHT22;6376;48.182;-1.644;2023-03-13T04:25:35;12.90;91.10
12622;DHT22;6376;48.182;-1.644;2023-03-13T04:28:00;12.90;91.10
12622;DHT22;6376;48.182;-1.644;2023-03-13T04:30:26;12.90;91.20
12622;DHT22;6376;48.182;-1.644;2023-03-13T04:32:52;12.90;91.10
12622;DHT22;6376;48.182;-1.644;2023-03-13T04:35:18;12.90;91.00
12622;DHT22;6376;48.182;-1.644;2023-03-13T04:37:44;12.90;91.00
12622;DHT22;6376;48.182;-1.644;2023-03-13T04:40:10;12.90;91.10
12622;DHT22;6376;48.182;-1.644;2023-03-13T04:42:38;12.90;91.10
12622;DHT22;6376;48.182;-1.644;2023-03-13T04:45:04;12.90;91.10
12622;DHT22;6376;48.182;-1.644;2023-03-13T04:47:30;12.90;91.00
12622;DHT22;6376;48.182;-1.644;2023-03-13T04:49:55;12.90;91.00
12622;DHT22;6376;48.182;-1.644;2023-03-13T04:52:21;12.90;91.00
12622;DHT22;6376;48.182;-1.644;2023-03-13T04:54:47;12.90;91.00
12622;DHT22;6376;48.182;-1.644;2023-03-13T04:57:12;12.90;90.90
12622;DHT22;6376;48.182;-1.644;2023-03-13T04:59:38;12.90;91.00
12622;DHT22;6376;48.182;-1.644;2023-03-13T05:02:04;12.90;91.00
12622;DHT22;6376;48.182;-1.644;2023-03-13T05:04:29;12.90;90.90
12622;DHT22;6376;48.182;-1.644;2023-03-13T05:06:55;12.90;90.80
12622;DHT22;6376;48.182;-1.644;2023-03-13T05:09:21;12.90;90.80
12622;DHT22;6376;48.182;-1.644;2023-03-13T05:11:46;12.90;90.90
12622;DHT22;6376;48.182;-1.644;2023-03-13T05:14:12;12.90;90.90
12622;DHT22;6376;48.182;-1.644;2023-03-13T05:16:38;12.90;90.80
12622;DHT22;6376;48.182;-1.644;2023-03-13T05:19:04;12.90;90.90
12622;DHT22;6376;48.182;-1.644;2023-03-13T05:21:29;12.90;90.80
12622;DHT22;6376;48.182;-1.644;2023-03-13T05:23:55;12.90;90.90
12622;DHT22;6376;48.182;-1.644;2023-03-13T05:26:20;12.90;91.00
12622;DHT22;6376;48.182;-1.644;2023-03-13T05:28:46;12.90;91.00
12622;DHT22;6376;48.182;-1.644;2023-03-13T05:31:12;12.90;90.80
12622;DHT22;6376;48.182;-1.644;2023-03-13T05:33:37;12.90;90.80
12622;DHT22;6376;48.182;-1.644;2023-03-13T05:36:03;12.90;90.80
12622;DHT22;6376;48.182;-1.644;2023-03-13T05:38:29;12.90;90.60
12622;DHT22;6376;48.182;-1.644;2023-03-13T05:40:54;12.90;90.50
12622;DHT22;6376;48.182;-1.644;2023-03-13T05:43:20;12.90;90.60
12622;DHT22;6376;48.182;-1.644;2023-03-13T05:45:45;12.90;90.70
12622;DHT22;6376;48.182;-1.644;2023-03-13T05:48:11;12.80;90.80
12622;DHT22;6376;48.182;-1.644;2023-03-13T05:50:37;12.90;90.90
12622;DHT22;6376;48.182;-1.644;2023-03-13T05:53:02;12.80;90.90
12622;DHT22;6376;48.182;-1.644;2023-03-13T05:55:28;12.80;91.00
12622;DHT22;6376;48.182;-1.644;2023-03-13T05:57:54;12.80;91.00
12622;DHT22;6376;48.182;-1.644;2023-03-13T06:00:19;12.80;91.00
12622;DHT22;6376;48.182;-1.644;2023-03-13T06:02:45;12.90;91.20
12622;DHT22;6376;48.182;-1.644;2023-03-13T06:05:11;12.80;91.20
12622;DHT22;6376;48.182;-1.644;2023-03-13T06:07:37;12.90;91.20
12622;DHT22;6376;48.182;-1.644;2023-03-13T06:10:03;12.90;91.20
12622;DHT22;6376;48.182;-1.644;2023-03-13T06:12:29;12.90;91.20
12622;DHT22;6376;48.182;-1.644;2023-03-13T06:14:54;12.90;91.20
12622;DHT22;6376;48.182;-1.644;2023-03-13T06:17:20;12.80;91.20
12622;DHT22;6376;48.182;-1.644;2023-03-13T06:19:46;12.80;91.10
12622;DHT22;6376;48.182;-1.644;2023-03-13T06:22:12;12.80;91.20
12622;DHT22;6376;48.182;-1.644;2023-03-13T06:24:37;12.80;91.10
12622;DHT22;6376;48.182;-1.644;2023-03-13T06:27:03;12.80;91.10
12622;DHT22;6376;48.182;-1.644;2023-03-13T06:29:29;12.80;91.00
12622;DHT22;6376;48.182;-1.644;2023-03-13T06:31:54;12.80;91.10
12622;DHT22;6376;48.182;-1.644;2023-03-13T06:34:20;12.80;91.00
12622;DHT22;6376;48.182;-1.644;2023-03-13T06:36:46;12.90;91.10
12622;DHT22;6376;48.182;-1.644;2023-03-13T06:39:11;12.80;91.10
12622;DHT22;6376;48.182;-1.644;2023-03-13T06:41:37;12.80;91.10
12622;DHT22;6376;48.182;-1.644;2023-03-13T06:44:04;12.80;91.10
12622;DHT22;6376;48.182;-1.644;2023-03-13T06:46:30;12.80;91.10
12622;DHT22;6376;48.182;-1.644;2023-03-13T06:48:57;12.90;91.10
12622;DHT22;6376;48.182;-1.644;2023-03-13T06:51:22;12.90;91.10
12622;DHT22;6376;48.182;-1.644;2023-03-13T06:53:50;12.90;91.10
12622;DHT22;6376;48.182;-1.644;2023-03-13T06:56:17;12.90;91.00
12622;DHT22;6376;48.182;-1.644;2023-03-13T06:58:46;12.90;90.90
12622;DHT22;6376;48.182;-1.644;2023-03-13T07:01:13;12.90;90.90
12622;DHT22;6376;48.182;-1.644;2023-03-13T07:03:40;12.90;90.80
12622;DHT22;6376;48.182;-1.644;2023-03-13T07:06:06;12.90;90.90
12622;DHT22;6376;48.182;-1.644;2023-03-13T07:08:33;12.90;90.90
12622;DHT22;6376;48.182;-1.644;2023-03-13T07:11:05;12.90;90.80
12622;DHT22;6376;48.182;-1.644;2023-03-13T07:13:31;12.90;90.80
12622;DHT22;6376;48.182;-1.644;2023-03-13T07:16:05;12.90;90.80
12622;DHT22;6376;48.182;-1.644;2023-03-13T07:18:31;13.00;90.70
12622;DHT22;6376;48.182;-1.644;2023-03-13T07:20:59;12.90;90.80
12622;DHT22;6376;48.182;-1.644;2023-03-13T07:23:26;13.00;90.80
12622;DHT22;6376;48.182;-1.644;2023-03-13T07:28:20;13.00;90.70
12622;DHT22;6376;48.182;-1.644;2023-03-13T07:30:46;13.00;90.70
12622;DHT22;6376;48.182;-1.644;2023-03-13T07:33:11;12.90;90.80
12622;DHT22;6376;48.182;-1.644;2023-03-13T07:35:37;13.00;90.80
12622;DHT22;6376;48.182;-1.644;2023-03-13T07:38:02;13.00;90.70
12622;DHT22;6376;48.182;-1.644;2023-03-13T07:40:28;13.10;90.90
12622;DHT22;6376;48.182;-1.644;2023-03-13T07:42:54;13.10;90.10
12622;DHT22;6376;48.182;-1.644;2023-03-13T07:45:19;13.10;89.70
12622;DHT22;6376;48.182;-1.644;2023-03-13T07:47:45;13.20;89.80
12622;DHT22;6376;48.182;-1.644;2023-03-13T07:50:10;13.20;89.30
12622;DHT22;6376;48.182;-1.644;2023-03-13T07:52:36;13.20;89.20
12622;DHT22;6376;48.182;-1.644;2023-03-13T07:55:02;13.20;89.70
12622;DHT22;6376;48.182;-1.644;2023-03-13T07:57:27;13.20;89.10
12622;DHT22;6376;48.182;-1.644;2023-03-13T07:59:53;13.20;89.30
12622;DHT22;6376;48.182;-1.644;2023-03-13T08:02:19;13.20;88.80
12622;DHT22;6376;48.182;-1.644;2023-03-13T08:04:44;13.20;89.10
12622;DHT22;6376;48.182;-1.644;2023-03-13T08:07:10;13.30;89.10
12622;DHT22;6376;48.182;-1.644;2023-03-13T08:09:36;13.20;88.70
12622;DHT22;6376;48.182;-1.644;2023-03-13T08:12:02;13.30;88.80
12622;DHT22;6376;48.182;-1.644;2023-03-13T08:14:28;13.30;88.60
12622;DHT22;6376;48.182;-1.644;2023-03-13T08:16:53;13.40;88.40
12622;DHT22;6376;48.182;-1.644;2023-03-13T08:19:19;13.40;88.50
12622;DHT22;6376;48.182;-1.644;2023-03-13T08:21:45;13.40;88.30
12622;DHT22;6376;48.182;-1.644;2023-03-13T08:24:11;13.50;88.10
12622;DHT22;6376;48.182;-1.644;2023-03-13T08:26:39;13.80;86.50
12622;DHT22;6376;48.182;-1.644;2023-03-13T08:29:13;14.10;85.10
12622;DHT22;6376;48.182;-1.644;2023-03-13T08:31:49;14.10;84.50
12622;DHT22;6376;48.182;-1.644;2023-03-13T08:34:17;14.00;84.50
12622;DHT22;6376;48.182;-1.644;2023-03-13T08:36:43;14.00;84.50
12622;DHT22;6376;48.182;-1.644;2023-03-13T08:39:14;14.00;84.60
12622;DHT22;6376;48.182;-1.644;2023-03-13T08:41:40;14.70;81.80
12622;DHT22;6376;48.182;-1.644;2023-03-13T08:44:09;15.10;80.70
12622;DHT22;6376;48.182;-1.644;2023-03-13T08:46:35;14.80;81.50
12622;DHT22;6376;48.182;-1.644;2023-03-13T08:49:03;14.30;83.10
12622;DHT22;6376;48.182;-1.644;2023-03-13T08:51:29;14.90;81.80
12622;DHT22;6376;48.182;-1.644;2023-03-13T08:53:55;15.20;80.30
12622;DHT22;6376;48.182;-1.644;2023-03-13T08:56:24;15.00;80.30
12622;DHT22;6376;48.182;-1.644;2023-03-13T08:58:51;15.20;80.50
12622;DHT22;6376;48.182;-1.644;2023-03-13T09:01:18;15.00;80.40
12622;DHT22;6376;48.182;-1.644;2023-03-13T09:03:44;14.80;81.50
12622;DHT22;6376;48.182;-1.644;2023-03-13T09:06:11;14.90;81.20
12622;DHT22;6376;48.182;-1.644;2023-03-13T09:08:39;14.70;81.50
12622;DHT22;6376;48.182;-1.644;2023-03-13T09:11:08;14.70;81.20
12622;DHT22;6376;48.182;-1.644;2023-03-13T09:13:36;14.70;81.40
12622;DHT22;6376;48.182;-1.644;2023-03-13T09:16:10;14.70;81.80
12622;DHT22;6376;48.182;-1.644;2023-03-13T09:18:37;14.70;81.60
12622;DHT22;6376;48.182;-1.644;2023-03-13T09:21:07;14.50;82.00
12622;DHT22;6376;48.182;-1.644;2023-03-13T09:23:33;14.60;82.00
12622;DHT22;6376;48.182;-1.644;2023-03-13T09:25:59;14.50;81.70
12622;DHT22;6376;48.182;-1.644;2023-03-13T09:28:25;14.40;82.50
12622;DHT22;6376;48.182;-1.644;2023-03-13T09:30:52;14.40;82.20
12622;DHT22;6376;48.182;-1.644;2023-03-13T09:33:19;14.30;83.60
12622;DHT22;6376;48.182;-1.644;2023-03-13T09:35:45;14.40;82.10
12622;DHT22;6376;48.182;-1.644;2023-03-13T09:38:16;14.40;82.20
12622;DHT22;6376;48.182;-1.644;2023-03-13T09:40:45;14.50;82.20
12622;DHT22;6376;48.182;-1.644;2023-03-13T09:45:47;14.50;81.70
12622;DHT22;6376;48.182;-1.644;2023-03-13T09:48:33;14.50;81.90
12622;DHT22;6376;48.182;-1.644;2023-03-13T09:51:09;14.40;82.00
12622;DHT22;6376;48.182;-1.644;2023-03-13T09:53:47;14.50;81.60
12622;DHT22;6376;48.182;-1.644;2023-03-13T09:56:18;14.50;81.50
12622;DHT22;6376;48.182;-1.644;2023-03-13T09:59:17;14.50;82.50
12622;DHT22;6376;48.182;-1.644;2023-03-13T10:01:45;14.70;81.20
12622;DHT22;6376;48.182;-1.644;2023-03-13T10:06:42;14.70;81.10
12622;DHT22;6376;48.182;-1.644;2023-03-13T10:09:20;14.50;81.60
12622;DHT22;6376;48.182;-1.644;2023-03-13T10:20:01;14.50;81.40
12622;DHT22;6376;48.182;-1.644;2023-03-13T10:22:33;14.40;81.40
12622;DHT22;6376;48.182;-1.644;2023-03-13T10:25:09;14.40;82.00
12622;DHT22;6376;48.182;-1.644;2023-03-13T10:27:47;14.40;81.80
12622;DHT22;6376;48.182;-1.644;2023-03-13T10:32:47;14.40;81.90
12622;DHT22;6376;48.182;-1.644;2023-03-13T10:35:23;14.60;81.00
12622;DHT22;6376;48.182;-1.644;2023-03-13T10:37:49;14.80;80.50
12622;DHT22;6376;48.182;-1.644;2023-03-13T10:40:26;14.90;80.10
12622;DHT22;6376;48.182;-1.644;2023-03-13T10:43:02;15.00;79.70
12622;DHT22;6376;48.182;-1.644;2023-03-13T10:45:32;15.10;79.40
12622;DHT22;6376;48.182;-1.644;2023-03-13T10:48:02;15.10;79.00
12622;DHT22;6376;48.182;-1.644;2023-03-13T10:50:32;15.20;78.80
12622;DHT22;6376;48.182;-1.644;2023-03-13T10:53:31;15.30;78.40
12622;DHT22;6376;48.182;-1.644;2023-03-13T10:56:42;15.30;78.10
12622;DHT22;6376;48.182;-1.644;2023-03-13T10:58:51;15.30;78.10
12622;DHT22;6376;48.182;-1.644;2023-03-13T11:01:21;15.30;78.00
12622;DHT22;6376;48.182;-1.644;2023-03-13T11:03:48;15.10;78.50
12622;DHT22;6376;48.182;-1.644;2023-03-13T11:06:32;15.10;79.00
12622;DHT22;6376;48.182;-1.644;2023-03-13T11:11:53;15.30;78.30
12622;DHT22;6376;48.182;-1.644;2023-03-13T11:14:24;15.20;78.20
12622;DHT22;6376;48.182;-1.644;2023-03-13T11:16:53;15.20;78.40
12622;DHT22;6376;48.182;-1.644;2023-03-13T11:22:39;15.20;78.40
12622;DHT22;6376;48.182;-1.644;2023-03-13T11:25:20;15.10;78.60
12622;DHT22;6376;48.182;-1.644;2023-03-13T11:28:05;15.00;78.70
12622;DHT22;6376;48.182;-1.644;2023-03-13T11:30:47;14.90;78.90
12622;DHT22;6376;48.182;-1.644;2023-03-13T11:36:45;15.00;78.70
12622;DHT22;6376;48.182;-1.644;2023-03-13T11:39:41;15.00;78.70
12622;DHT22;6376;48.182;-1.644;2023-03-13T11:53:06;15.00;78.60
12622;DHT22;6376;48.182;-1.644;2023-03-13T12:06:33;14.80;79.40
12622;DHT22;6376;48.182;-1.644;2023-03-13T12:09:10;14.70;79.50
12622;DHT22;6376;48.182;-1.644;2023-03-13T12:17:16;14.70;79.70
12622;DHT22;6376;48.182;-1.644;2023-03-13T12:19:54;14.70;79.70
12622;DHT22;6376;48.182;-1.644;2023-03-13T12:28:47;14.60;79.70
12622;DHT22;6376;48.182;-1.644;2023-03-13T12:31:27;14.60;79.70
12622;DHT22;6376;48.182;-1.644;2023-03-13T12:37:33;14.60;79.80
12622;DHT22;6376;48.182;-1.644;2023-03-13T12:44:58;14.50;80.00
12622;DHT22;6376;48.182;-1.644;2023-03-13T13:01:41;14.40;80.20
12622;DHT22;6376;48.182;-1.644;2023-03-13T13:04:13;14.40;80.30
12622;DHT22;6376;48.182;-1.644;2023-03-13T13:11:48;14.40;80.40
12622;DHT22;6376;48.182;-1.644;2023-03-13T13:16:51;14.40;80.40
12622;DHT22;6376;48.182;-1.644;2023-03-13T13:24:58;14.40;80.60
12622;DHT22;6376;48.182;-1.644;2023-03-13T13:27:44;14.40;80.60
12622;DHT22;6376;48.182;-1.644;2023-03-13T13:32:46;14.40;80.50
12622;DHT22;6376;48.182;-1.644;2023-03-13T13:35:23;14.40;80.20
12622;DHT22;6376;48.182;-1.644;2023-03-13T13:37:49;14.40;80.20
12622;DHT22;6376;48.182;-1.644;2023-03-13T13:42:56;14.40;80.40
12622;DHT22;6376;48.182;-1.644;2023-03-13T13:47:50;14.40;80.20
12622;DHT22;6376;48.182;-1.644;2023-03-13T13:50:35;14.40;80.10
12622;DHT22;6376;48.182;-1.644;2023-03-13T13:54:02;14.40;80.10
12622;DHT22;6376;48.182;-1.644;2023-03-13T14:01:29;14.30;80.10
12622;DHT22;6376;48.182;-1.644;2023-03-13T14:06:43;14.30;80.20
12622;DHT22;6376;48.182;-1.644;2023-03-13T14:10:11;14.30;80.20
12622;DHT22;6376;48.182;-1.644;2023-03-13T14:12:33;14.30;80.20
12622;DHT22;6376;48.182;-1.644;2023-03-13T14:15:16;14.30;80.30
12622;DHT22;6376;48.182;-1.644;2023-03-13T14:17:46;14.30;80.20
12622;DHT22;6376;48.182;-1.644;2023-03-13T14:20:35;14.30;79.90
12622;DHT22;6376;48.182;-1.644;2023-03-13T14:23:09;14.30;80.00
12622;DHT22;6376;48.182;-1.644;2023-03-13T14:25:44;14.30;80.20
12622;DHT22;6376;48.182;-1.644;2023-03-13T14:28:22;14.30;80.40
12622;DHT22;6376;48.182;-1.644;2023-03-13T14:30:50;14.30;80.20
12622;DHT22;6376;48.182;-1.644;2023-03-13T14:33:17;14.30;80.40
12622;DHT22;6376;48.182;-1.644;2023-03-13T14:35:43;14.20;80.50
12622;DHT22;6376;48.182;-1.644;2023-03-13T14:38:23;14.30;80.60
12622;DHT22;6376;48.182;-1.644;2023-03-13T14:40:50;14.30;80.70
12622;DHT22;6376;48.182;-1.644;2023-03-13T14:43:35;14.30;80.80
12622;DHT22;6376;48.182;-1.644;2023-03-13T14:46:34;14.20;80.80
12622;DHT22;6376;48.182;-1.644;2023-03-13T14:49:27;14.30;80.90
12622;DHT22;6376;48.182;-1.644;2023-03-13T14:52:05;14.30;80.90
12622;DHT22;6376;48.182;-1.644;2023-03-13T14:54:34;14.30;80.90
12622;DHT22;6376;48.182;-1.644;2023-03-13T14:59:31;14.30;81.10
12622;DHT22;6376;48.182;-1.644;2023-03-13T15:05:04;14.30;81.40
12622;DHT22;6376;48.182;-1.644;2023-03-13T15:07:41;14.30;81.00
12622;DHT22;6376;48.182;-1.644;2023-03-13T15:10:35;14.30;81.40
12622;DHT22;6376;48.182;-1.644;2023-03-13T15:13:22;14.30;81.30
12622;DHT22;6376;48.182;-1.644;2023-03-13T15:15:52;14.20;81.40
12622;DHT22;6376;48.182;-1.644;2023-03-13T15:20:54;14.20;81.40
12622;DHT22;6376;48.182;-1.644;2023-03-13T15:23:20;14.20;81.60
12622;DHT22;6376;48.182;-1.644;2023-03-13T15:25:46;14.20;81.80
12622;DHT22;6376;48.182;-1.644;2023-03-13T15:28:18;14.20;82.00
12622;DHT22;6376;48.182;-1.644;2023-03-13T15:30:48;14.30;81.80
12622;DHT22;6376;48.182;-1.644;2023-03-13T15:33:16;14.20;81.90
12622;DHT22;6376;48.182;-1.644;2023-03-13T15:35:43;14.20;81.60
12622;DHT22;6376;48.182;-1.644;2023-03-13T15:38:14;14.20;81.70
12622;DHT22;6376;48.182;-1.644;2023-03-13T15:40:40;14.20;81.90
12622;DHT22;6376;48.182;-1.644;2023-03-13T15:43:06;14.20;81.90
12622;DHT22;6376;48.182;-1.644;2023-03-13T15:45:32;14.10;82.20
12622;DHT22;6376;48.182;-1.644;2023-03-13T15:47:59;14.20;82.50
12622;DHT22;6376;48.182;-1.644;2023-03-13T15:50:24;14.20;82.10
12622;DHT22;6376;48.182;-1.644;2023-03-13T15:52:55;14.20;82.70
12622;DHT22;6376;48.182;-1.644;2023-03-13T15:55:24;14.10;82.60
12622;DHT22;6376;48.182;-1.644;2023-03-13T15:57:50;14.20;82.80
12622;DHT22;6376;48.182;-1.644;2023-03-13T16:00:24;14.10;82.90
12622;DHT22;6376;48.182;-1.644;2023-03-13T16:02:50;14.20;83.50
12622;DHT22;6376;48.182;-1.644;2023-03-13T16:05:16;14.20;83.00
12622;DHT22;6376;48.182;-1.644;2023-03-13T16:07:42;14.20;83.00
12622;DHT22;6376;48.182;-1.644;2023-03-13T16:10:21;14.20;82.60
12622;DHT22;6376;48.182;-1.644;2023-03-13T16:12:47;14.10;82.90
12622;DHT22;6376;48.182;-1.644;2023-03-13T16:15:13;14.10;83.30
12622;DHT22;6376;48.182;-1.644;2023-03-13T16:17:38;14.10;83.10
12622;DHT22;6376;48.182;-1.644;2023-03-13T16:20:18;14.10;83.40
12622;DHT22;6376;48.182;-1.644;2023-03-13T16:22:45;14.10;83.60
12622;DHT22;6376;48.182;-1.644;2023-03-13T16:25:12;14.10;84.40
12622;DHT22;6376;48.182;-1.644;2023-03-13T16:27:37;14.10;83.60
12622;DHT22;6376;48.182;-1.644;2023-03-13T16:30:18;14.10;84.20
12622;DHT22;6376;48.182;-1.644;2023-03-13T16:32:45;14.10;84.10
12622;DHT22;6376;48.182;-1.644;2023-03-13T16:35:11;14.10;84.50
12622;DHT22;6376;48.182;-1.644;2023-03-13T16:37:37;14.10;84.40
12622;DHT22;6376;48.182;-1.644;2023-03-13T16:40:14;14.10;84.20
12622;DHT22;6376;48.182;-1.644;2023-03-13T16:42:40;14.00;83.40
12622;DHT22;6376;48.182;-1.644;2023-03-13T16:45:06;14.00;83.20
12622;DHT22;6376;48.182;-1.644;2023-03-13T16:47:32;13.90;83.10
12622;DHT22;6376;48.182;-1.644;2023-03-13T16:50:00;13.90;82.90
12622;DHT22;6376;48.182;-1.644;2023-03-13T16:52:26;13.80;82.90
12622;DHT22;6376;48.182;-1.644;2023-03-13T16:54:52;13.80;83.30
12622;DHT22;6376;48.182;-1.644;2023-03-13T16:57:22;13.80;83.10
12622;DHT22;6376;48.182;-1.644;2023-03-13T16:59:49;13.70;83.30
12622;DHT22;6376;48.182;-1.644;2023-03-13T17:02:16;13.70;83.40
12622;DHT22;6376;48.182;-1.644;2023-03-13T17:04:43;13.70;83.60
12622;DHT22;6376;48.182;-1.644;2023-03-13T17:07:27;13.70;83.80
12622;DHT22;6376;48.182;-1.644;2023-03-13T17:09:54;13.70;83.80
12622;DHT22;6376;48.182;-1.644;2023-03-13T17:12:19;13.70;84.40
12622;DHT22;6376;48.182;-1.644;2023-03-13T17:14:45;13.60;83.90
12622;DHT22;6376;48.182;-1.644;2023-03-13T17:17:17;13.70;84.40
12622;DHT22;6376;48.182;-1.644;2023-03-13T17:19:44;13.70;84.30
12622;DHT22;6376;48.182;-1.644;2023-03-13T17:22:14;13.70;84.30
12622;DHT22;6376;48.182;-1.644;2023-03-13T17:24:40;13.70;84.10
12622;DHT22;6376;48.182;-1.644;2023-03-13T17:27:13;13.70;84.30
12622;DHT22;6376;48.182;-1.644;2023-03-13T17:29:40;13.70;84.60
12622;DHT22;6376;48.182;-1.644;2023-03-13T17:32:05;13.70;84.60
12622;DHT22;6376;48.182;-1.644;2023-03-13T17:34:32;13.70;84.30
12622;DHT22;6376;48.182;-1.644;2023-03-13T17:36:58;13.70;84.40
12622;DHT22;6376;48.182;-1.644;2023-03-13T17:39:25;13.70;84.70
12622;DHT22;6376;48.182;-1.644;2023-03-13T17:41:51;13.70;84.50
12622;DHT22;6376;48.182;-1.644;2023-03-13T17:44:17;13.70;84.30
12622;DHT22;6376;48.182;-1.644;2023-03-13T17:46:44;13.70;84.30
12622;DHT22;6376;48.182;-1.644;2023-03-13T17:49:15;13.70;84.40
12622;DHT22;6376;48.182;-1.644;2023-03-13T17:51:42;13.70;84.30
12622;DHT22;6376;48.182;-1.644;2023-03-13T17:54:09;13.70;84.30